Terminal Aerodrome Forecast
Issued by NWS

Home | Current Version | Previous Version | Text Only | Print | Product List | Glossary On
Versions: 1 2 3 4 5 6 7 8 9 10 11 12
687
FTUS45 KREV 090530
TAFMMH
TAF
KMMH 090530Z 0906/1006 24008KT P6SM SCT080 BKN120
     FM092200 21014G22KT P6SM SCT050 BKN100 WS020/25050KT
     FM100500 24018G32KT P6SM SCT060 BKN080 WS020/25060KT=

USA.gov is the U.S. government's official web portal to all federal, state and local government web resources and services.